Time;durP1;ratioP1;P1;durP2;ratioP2;P2;SDS_P1;SDS_P2;PMS_P1;PMS_P2;Temp;Humidity;BMP_temperature;BMP_pressure;BME280_temperature;BME280_humidity;BME280_pressure;Samples;Min_cycle;Max_cycle;Signal;HPM_P1;HPM_P2
2023/06/09 00:01:22;;;;;;;15.50;6.18;;;13.40;99.90;;;;;;5042678;28;20491;-52
2023/06/09 00:03:50;;;;;;;16.00;5.88;;;13.40;99.90;;;;;;5042060;28;20065;-50
2023/06/09 00:06:22;;;;;;;16.02;5.30;;;13.40;99.90;;;;;;5042847;28;20558;-54
2023/06/09 00:08:49;;;;;;;15.55;5.60;;;13.30;99.90;;;;;;5042524;28;20048;-51
2023/06/09 00:11:16;;;;;;;13.45;5.68;;;13.30;99.90;;;;;;5053286;28;20049;-47
2023/06/09 00:13:43;;;;;;;12.93;6.15;;;13.30;99.90;;;;;;5052063;28;20041;-52
2023/06/09 00:16:10;;;;;;;17.33;6.00;;;13.20;99.90;;;;;;5043086;28;20038;-51
2023/06/09 00:18:40;;;;;;;17.27;5.85;;;13.20;99.90;;;;;;5033621;28;20041;-50
2023/06/09 00:21:06;;;;;;;12.85;5.43;;;13.20;99.90;;;;;;5033610;28;20049;-53
2023/06/09 00:23:33;;;;;;;13.40;5.63;;;13.20;99.90;;;;;;5033177;28;20042;-54
2023/06/09 00:26:01;;;;;;;15.93;5.75;;;13.20;99.90;;;;;;5040017;28;20083;-50
2023/06/09 00:28:27;;;;;;;19.38;5.82;;;13.20;99.90;;;;;;5053125;28;20098;-50
2023/06/09 00:30:54;;;;;;;18.60;5.93;;;13.20;99.90;;;;;;5052204;28;20041;-50
2023/06/09 00:33:21;;;;;;;14.05;6.00;;;13.20;99.90;;;;;;5053033;28;20045;-51
2023/06/09 00:35:49;;;;;;;12.38;5.70;;;13.30;99.90;;;;;;5055665;28;20385;-53
2023/06/09 00:38:15;;;;;;;18.02;6.65;;;13.30;99.90;;;;;;5055988;28;20045;-52
2023/06/09 00:40:42;;;;;;;19.00;6.53;;;13.20;99.90;;;;;;5056976;28;20041;-55
2023/06/09 00:43:09;;;;;;;15.48;5.90;;;13.30;99.90;;;;;;5057004;28;20578;-52
2023/06/09 00:45:36;;;;;;;13.07;5.47;;;13.40;99.90;;;;;;5055943;28;20445;-49
2023/06/09 00:48:05;;;;;;;16.38;5.90;;;13.40;99.90;;;;;;5055346;28;20041;-49
2023/06/09 00:50:32;;;;;;;15.52;5.78;;;13.40;99.90;;;;;;5056897;28;20537;-49
2023/06/09 00:52:59;;;;;;;15.18;6.25;;;13.50;99.90;;;;;;5056802;28;20073;-54
2023/06/09 00:55:25;;;;;;;17.67;6.78;;;13.50;99.90;;;;;;5056637;28;20500;-50
2023/06/09 00:57:55;;;;;;;19.20;6.75;;;13.50;99.90;;;;;;5055868;28;20063;-54
2023/06/09 01:00:26;;;;;;;18.27;6.70;;;13.40;99.90;;;;;;5055610;28;20140;-49
2023/06/09 01:02:53;;;;;;;22.05;7.10;;;13.40;99.90;;;;;;5057078;28;20065;-53
2023/06/09 01:05:20;;;;;;;20.35;7.05;;;13.40;99.90;;;;;;5055486;28;20069;-50
2023/06/09 01:07:47;;;;;;;17.38;6.13;;;13.40;99.90;;;;;;5056869;28;20472;-54
2023/06/09 01:10:13;;;;;;;17.48;6.60;;;13.50;99.90;;;;;;5055328;28;20041;-53
2023/06/09 01:12:40;;;;;;;19.35;6.75;;;13.50;99.90;;;;;;5056735;28;20037;-55
2023/06/09 01:15:07;;;;;;;16.23;7.13;;;13.50;99.90;;;;;;5055589;28;20041;-51
2023/06/09 01:17:35;;;;;;;19.23;7.22;;;13.50;99.90;;;;;;5055004;28;20371;-49
2023/06/09 01:20:05;;;;;;;22.00;7.03;;;13.40;99.90;;;;;;5056268;28;20048;-52
2023/06/09 01:22:32;;;;;;;16.70;6.68;;;13.50;99.90;;;;;;5055096;28;20079;-53
2023/06/09 01:24:59;;;;;;;17.42;6.40;;;13.40;99.90;;;;;;5056385;28;20041;-51
2023/06/09 01:27:26;;;;;;;18.77;7.47;;;13.40;99.90;;;;;;5055268;28;20140;-54
2023/06/09 01:29:52;;;;;;;22.92;7.10;;;13.40;99.90;;;;;;5055035;28;20111;-50
2023/06/09 01:32:20;;;;;;;21.95;7.13;;;13.30;99.90;;;;;;5056269;28;20506;-51
2023/06/09 01:34:47;;;;;;;19.05;7.65;;;13.30;99.90;;;;;;5054787;28;20059;-53
2023/06/09 01:37:14;;;;;;;20.95;7.63;;;13.30;99.90;;;;;;5056001;28;20072;-49
2023/06/09 01:39:41;;;;;;;21.60;7.55;;;13.40;99.90;;;;;;5056206;28;20049;-52
2023/06/09 01:42:08;;;;;;;21.77;7.93;;;13.40;99.90;;;;;;5055962;28;20047;-49
2023/06/09 01:44:35;;;;;;;18.98;6.57;;;13.50;99.90;;;;;;5054338;28;20041;-48
2023/06/09 01:47:01;;;;;;;19.20;7.03;;;13.40;99.90;;;;;;5055791;28;20041;-53
2023/06/09 01:49:28;;;;;;;22.10;8.52;;;13.40;99.90;;;;;;5054369;28;20045;-50
2023/06/09 01:51:55;;;;;;;20.45;7.18;;;13.40;99.90;;;;;;5054508;28;20131;-52
2023/06/09 01:54:22;;;;;;;22.13;7.20;;;13.50;99.90;;;;;;5056021;28;20083;-50
2023/06/09 01:56:51;;;;;;;27.70;9.00;;;13.50;99.90;;;;;;5054212;28;20049;-50
2023/06/09 01:59:18;;;;;;;21.83;7.10;;;13.50;99.90;;;;;;5055828;28;20044;-52
2023/06/09 02:01:45;;;;;;;22.88;7.93;;;13.50;99.90;;;;;;5054592;28;20484;-53
2023/06/09 02:04:12;;;;;;;17.63;7.13;;;13.50;99.90;;;;;;5054343;28;20037;-55
2023/06/09 02:06:39;;;;;;;19.30;7.05;;;13.50;99.90;;;;;;5054445;28;20081;-51
2023/06/09 02:09:06;;;;;;;23.67;6.93;;;13.40;99.90;;;;;;5054592;28;20039;-52
2023/06/09 02:11:34;;;;;;;22.80;6.93;;;13.30;99.90;;;;;;5054135;28;20041;-55
2023/06/09 02:14:01;;;;;;;20.45;6.70;;;13.30;99.90;;;;;;5055664;28;20037;-54
2023/06/09 02:16:28;;;;;;;17.83;7.15;;;13.30;99.90;;;;;;5055541;28;20048;-50
2023/06/09 02:18:56;;;;;;;27.60;7.15;;;13.40;99.90;;;;;;5054371;28;20041;-54
2023/06/09 02:21:22;;;;;;;21.05;7.57;;;13.30;99.90;;;;;;5055447;28;20071;-54
2023/06/09 02:23:50;;;;;;;23.88;7.82;;;13.30;99.90;;;;;;5054852;28;20407;-53
2023/06/09 02:26:17;;;;;;;19.45;7.53;;;13.30;99.90;;;;;;5055000;28;20037;-54
2023/06/09 02:28:44;;;;;;;20.13;6.57;;;13.30;99.90;;;;;;5054800;28;20037;-49
2023/06/09 02:31:11;;;;;;;20.58;7.75;;;13.40;99.90;;;;;;5037084;28;20449;-48
2023/06/09 02:33:38;;;;;;;20.33;8.07;;;13.40;99.90;;;;;;5054814;28;20483;-52
2023/06/09 02:36:05;;;;;;;23.52;6.97;;;13.40;99.90;;;;;;5053851;28;20049;-54
2023/06/09 02:38:32;;;;;;;22.63;7.45;;;13.40;99.90;;;;;;5055086;28;20121;-52
2023/06/09 02:40:59;;;;;;;22.83;7.43;;;13.40;99.90;;;;;;5053208;28;20148;-55
2023/06/09 02:43:26;;;;;;;26.42;7.68;;;13.30;99.90;;;;;;5053710;28;20037;-51
2023/06/09 02:45:52;;;;;;;21.70;7.88;;;13.30;99.90;;;;;;5054730;28;20049;-52
2023/06/09 02:48:19;;;;;;;22.88;7.13;;;13.40;99.90;;;;;;5053509;28;20059;-49
2023/06/09 02:50:46;;;;;;;23.00;7.57;;;13.40;99.90;;;;;;5053610;28;20045;-53
2023/06/09 02:53:14;;;;;;;21.63;6.75;;;13.40;99.90;;;;;;5053316;28;20041;-54
2023/06/09 02:55:44;;;;;;;23.75;7.25;;;13.40;99.90;;;;;;5053307;28;20057;-52
2023/06/09 02:58:15;;;;;;;18.70;7.65;;;13.40;99.90;;;;;;5052428;28;20049;-53
2023/06/09 03:00:45;;;;;;;27.42;7.70;;;13.40;99.90;;;;;;5053543;28;20091;-50
2023/06/09 03:03:13;;;;;;;25.73;8.32;;;13.40;99.90;;;;;;5054139;28;20047;-54
2023/06/09 03:05:40;;;;;;;25.10;7.25;;;13.40;99.90;;;;;;5053179;28;20132;-53
2023/06/09 03:08:10;;;;;;;23.90;7.25;;;13.40;99.90;;;;;;5052920;28;20511;-52
2023/06/09 03:10:38;;;;;;;24.10;7.43;;;13.40;99.90;;;;;;5053067;28;20041;-49
2023/06/09 03:13:07;;;;;;;23.35;7.07;;;13.40;99.90;;;;;;5052692;28;20416;-50
2023/06/09 03:15:40;;;;;;;20.40;7.00;;;13.40;99.90;;;;;;5052917;28;20037;-52
2023/06/09 03:18:10;;;;;;;19.85;7.28;;;13.40;99.90;;;;;;5052785;28;20068;-54
2023/06/09 03:20:38;;;;;;;26.75;7.60;;;13.40;99.90;;;;;;5052959;28;20049;-52
2023/06/09 03:23:09;;;;;;;22.52;7.45;;;13.40;99.90;;;;;;5052311;28;20111;-51
2023/06/09 03:25:39;;;;;;;16.48;6.13;;;13.40;99.90;;;;;;5052739;28;20045;-52
2023/06/09 03:28:07;;;;;;;20.52;6.40;;;13.30;99.90;;;;;;5052375;28;20037;-51
2023/06/09 03:30:36;;;;;;;18.98;6.85;;;13.30;99.90;;;;;;5052237;28;20091;-55
2023/06/09 03:33:03;;;;;;;20.05;6.53;;;13.40;99.90;;;;;;5052562;28;20037;-48
2023/06/09 03:35:30;;;;;;;20.83;6.95;;;13.30;99.90;;;;;;5052363;28;20048;-49
2023/06/09 03:37:58;;;;;;;18.90;6.43;;;13.30;99.90;;;;;;5052586;28;20511;-50
2023/06/09 03:40:25;;;;;;;20.65;6.72;;;13.30;99.90;;;;;;5052314;28;20045;-50
2023/06/09 03:42:52;;;;;;;24.25;7.32;;;13.30;99.90;;;;;;5052625;28;20063;-54
2023/06/09 03:45:19;;;;;;;23.17;6.50;;;13.20;99.90;;;;;;5052680;28;20045;-49
2023/06/09 03:47:46;;;;;;;17.48;5.75;;;13.20;99.90;;;;;;5052065;28;20554;-48
2023/06/09 03:50:14;;;;;;;27.45;7.13;;;13.10;99.90;;;;;;5052268;28;20041;-49
2023/06/09 03:52:42;;;;;;;22.83;6.55;;;13.10;99.90;;;;;;5052401;28;20091;-49
2023/06/09 03:55:09;;;;;;;22.25;6.47;;;13.10;99.90;;;;;;5052354;28;20037;-51
2023/06/09 03:57:37;;;;;;;24.92;7.00;;;13.10;99.90;;;;;;5052298;28;20495;-53
2023/06/09 04:00:05;;;;;;;19.70;5.93;;;13.10;99.90;;;;;;5052375;28;20041;-55
2023/06/09 04:02:41;;;;;;;19.10;6.20;;;13.10;99.90;;;;;;5052717;28;20049;-53
2023/06/09 04:05:09;;;;;;;24.35;5.70;;;13.10;99.90;;;;;;5052203;28;20091;-56
2023/06/09 04:07:36;;;;;;;23.48;6.22;;;13.10;99.90;;;;;;5052565;28;20095;-52
2023/06/09 04:10:02;;;;;;;22.60;6.88;;;13.10;99.90;;;;;;5053302;28;20033;-53
2023/06/09 04:12:30;;;;;;;22.10;6.55;;;13.10;99.90;;;;;;5051858;28;20132;-52
2023/06/09 04:14:59;;;;;;;22.48;7.28;;;13.10;99.90;;;;;;5051995;28;20041;-53
2023/06/09 04:17:25;;;;;;;24.38;6.57;;;13.10;99.90;;;;;;5053484;28;20071;-52
2023/06/09 04:19:54;;;;;;;20.25;6.80;;;13.10;99.90;;;;;;5052190;28;20041;-51
2023/06/09 04:22:23;;;;;;;21.05;7.15;;;13.10;99.90;;;;;;5051756;28;20496;-53
2023/06/09 04:24:50;;;;;;;21.33;6.40;;;13.10;99.90;;;;;;5052434;28;20041;-53
2023/06/09 04:27:19;;;;;;;26.30;7.13;;;13.10;99.90;;;;;;5052521;28;20041;-49
2023/06/09 04:29:47;;;;;;;24.40;6.75;;;13.20;99.90;;;;;;5052149;28;20045;-49
2023/06/09 04:32:14;;;;;;;23.48;6.80;;;13.10;99.90;;;;;;5052443;28;20494;-50
2023/06/09 04:34:41;;;;;;;28.52;6.88;;;13.10;99.90;;;;;;5053605;28;20048;-55
2023/06/09 04:37:12;;;;;;;19.77;6.35;;;13.10;99.90;;;;;;5052113;28;20056;-53
2023/06/09 04:39:45;;;;;;;27.20;6.75;;;13.10;99.90;;;;;;5052096;28;20072;-52
2023/06/09 04:42:20;;;;;;;26.23;7.00;;;13.10;99.90;;;;;;5052313;28;20091;-50
2023/06/09 04:44:47;;;;;;;23.00;7.25;;;13.10;99.90;;;;;;5051692;28;20496;-53
2023/06/09 04:47:17;;;;;;;27.15;6.60;;;13.10;99.90;;;;;;5053283;28;20067;-49
2023/06/09 04:49:46;;;;;;;26.15;6.93;;;13.10;99.90;;;;;;5052295;28;20064;-50
2023/06/09 04:52:17;;;;;;;20.23;6.45;;;13.10;99.90;;;;;;5051827;28;20041;-51
2023/06/09 04:54:44;;;;;;;23.38;6.95;;;13.00;99.90;;;;;;5052978;28;20049;-52
2023/06/09 04:57:11;;;;;;;22.25;5.85;;;13.00;99.90;;;;;;5051590;28;20140;-54
2023/06/09 04:59:39;;;;;;;18.75;6.53;;;13.00;99.90;;;;;;5052778;28;20491;-55
2023/06/09 05:02:06;;;;;;;21.63;6.85;;;12.90;99.90;;;;;;5052889;28;20460;-52
2023/06/09 05:04:33;;;;;;;26.42;7.00;;;13.00;99.90;;;;;;5052804;28;20368;-52
2023/06/09 05:07:01;;;;;;;17.02;6.45;;;13.00;99.90;;;;;;5051722;28;20037;-52
2023/06/09 05:09:28;;;;;;;19.67;7.15;;;13.10;99.90;;;;;;5051948;28;20051;-53
2023/06/09 05:11:55;;;;;;;20.42;6.82;;;13.10;99.90;;;;;;5051451;28;20044;-53
2023/06/09 05:14:22;;;;;;;25.17;7.00;;;13.10;99.90;;;;;;5051621;28;20057;-49
2023/06/09 05:16:53;;;;;;;24.92;7.18;;;13.10;99.90;;;;;;5052196;28;20052;-51
2023/06/09 05:19:21;;;;;;;21.42;7.07;;;13.20;99.90;;;;;;5051599;28;20045;-48
2023/06/09 05:21:48;;;;;;;20.08;7.28;;;13.20;99.90;;;;;;5054711;28;20041;-49
2023/06/09 05:24:15;;;;;;;20.25;6.90;;;13.30;99.90;;;;;;5054990;28;20041;-50
2023/06/09 05:26:42;;;;;;;24.50;7.43;;;13.30;99.90;;;;;;5055001;28;20060;-48
2023/06/09 05:29:10;;;;;;;22.80;7.93;;;13.20;99.90;;;;;;5055026;28;20045;-49
2023/06/09 05:31:37;;;;;;;24.45;8.18;;;13.10;99.90;;;;;;5056172;28;20041;-52
2023/06/09 05:34:04;;;;;;;22.48;6.55;;;13.20;99.90;;;;;;5054694;28;20361;-50
2023/06/09 05:36:30;;;;;;;23.92;8.85;;;13.20;99.90;;;;;;5054942;28;20045;-53
2023/06/09 05:39:00;;;;;;;25.65;8.65;;;13.20;99.90;;;;;;5054816;28;20045;-51
2023/06/09 05:41:26;;;;;;;26.60;8.38;;;13.20;99.90;;;;;;5056188;28;20037;-52
2023/06/09 05:43:53;;;;;;;22.33;7.97;;;13.20;99.90;;;;;;5056510;28;20045;-50
2023/06/09 05:46:20;;;;;;;24.63;8.05;;;13.30;99.90;;;;;;5055967;28;20060;-50
2023/06/09 05:48:47;;;;;;;21.02;7.60;;;13.30;99.90;;;;;;5055741;28;20065;-50
2023/06/09 05:51:15;;;;;;;25.95;8.18;;;13.40;99.90;;;;;;5054526;28;20041;-48
2023/06/09 05:53:42;;;;;;;24.27;8.15;;;13.50;99.90;;;;;;5055844;28;20040;-50
2023/06/09 05:56:09;;;;;;;27.20;8.20;;;13.40;99.90;;;;;;5055655;28;20072;-49
2023/06/09 05:58:36;;;;;;;28.40;8.57;;;13.50;99.90;;;;;;5055939;28;20041;-49
2023/06/09 06:01:03;;;;;;;27.75;8.23;;;13.40;99.90;;;;;;5055368;28;20044;-49
2023/06/09 06:03:32;;;;;;;27.42;9.60;;;13.40;99.90;;;;;;5055646;28;20041;-47
2023/06/09 06:06:00;;;;;;;28.15;8.27;;;13.40;99.90;;;;;;5055722;28;20061;-49
2023/06/09 06:08:26;;;;;;;22.67;8.30;;;13.50;99.90;;;;;;5055440;28;20045;-48
2023/06/09 06:10:53;;;;;;;29.13;8.82;;;13.50;99.90;;;;;;5055347;28;20391;-50
2023/06/09 06:13:20;;;;;;;21.40;8.20;;;13.50;99.90;;;;;;5055462;28;20491;-49
2023/06/09 06:15:46;;;;;;;24.77;9.85;;;13.50;99.90;;;;;;5055485;28;20106;-54
2023/06/09 06:18:14;;;;;;;26.17;9.43;;;13.50;99.90;;;;;;5055264;28;20129;-51
2023/06/09 06:20:41;;;;;;;28.42;8.85;;;13.60;99.90;;;;;;5053773;28;20048;-52
2023/06/09 06:23:08;;;;;;;25.95;10.23;;;13.60;99.90;;;;;;5054940;28;20041;-54
2023/06/09 06:25:41;;;;;;;25.20;10.57;;;13.60;99.90;;;;;;5054745;28;20045;-52
2023/06/09 06:28:08;;;;;;;25.50;10.68;;;13.70;99.90;;;;;;5054705;28;20037;-56
2023/06/09 06:30:37;;;;;;;33.25;11.30;;;13.70;99.90;;;;;;5055144;28;20037;-57
2023/06/09 06:33:04;;;;;;;36.70;12.02;;;13.70;99.90;;;;;;5055047;28;20033;-53
2023/06/09 06:35:31;;;;;;;30.42;10.88;;;13.90;99.90;;;;;;5053465;28;20144;-54
2023/06/09 06:37:58;;;;;;;27.30;10.25;;;14.00;99.90;;;;;;5054782;28;20102;-53
2023/06/09 06:40:25;;;;;;;22.83;9.77;;;14.10;99.90;;;;;;5055388;28;20040;-53
2023/06/09 06:42:52;;;;;;;34.30;9.90;;;14.10;99.90;;;;;;5054757;28;20118;-51
2023/06/09 06:45:42;;;;;;;22.67;8.98;;;14.20;99.90;;;;;;5053351;28;20482;-51
2023/06/09 06:48:09;;;;;;;21.75;8.30;;;14.30;99.90;;;;;;5054681;28;20116;-54
2023/06/09 06:50:37;;;;;;;24.17;8.65;;;14.30;99.90;;;;;;5055085;28;20037;-53
2023/06/09 06:53:04;;;;;;;25.20;8.90;;;14.30;99.90;;;;;;5054222;28;20114;-51
2023/06/09 06:55:31;;;;;;;23.73;8.73;;;14.40;99.90;;;;;;5054319;28;20053;-57
2023/06/09 06:58:02;;;;;;;24.65;8.82;;;14.30;99.90;;;;;;5039643;28;20044;-54
2023/06/09 07:00:28;;;;;;;22.67;8.82;;;14.30;99.90;;;;;;5053662;28;20401;-55
2023/06/09 07:02:56;;;;;;;25.42;9.02;;;14.40;99.90;;;;;;5053839;28;20041;-54
2023/06/09 07:05:22;;;;;;;23.90;9.02;;;14.40;99.90;;;;;;5054172;28;20037;-54
2023/06/09 07:07:49;;;;;;;20.98;8.30;;;14.50;99.90;;;;;;5053627;28;20123;-53
2023/06/09 07:10:16;;;;;;;22.75;9.75;;;14.60;99.90;;;;;;5054107;28;20048;-56
2023/06/09 07:12:43;;;;;;;25.67;9.50;;;14.60;99.90;;;;;;5053792;28;20037;-56
2023/06/09 07:15:10;;;;;;;26.23;9.30;;;14.70;99.90;;;;;;5054161;28;20549;-52
2023/06/09 07:17:37;;;;;;;24.17;9.88;;;14.90;99.90;;;;;;5053714;28;20041;-55
2023/06/09 07:20:04;;;;;;;27.13;9.50;;;15.00;99.90;;;;;;5053818;28;20044;-51
2023/06/09 07:22:33;;;;;;;24.23;8.20;;;14.90;99.90;;;;;;5053537;28;20413;-52
2023/06/09 07:25:01;;;;;;;24.25;8.80;;;15.00;99.90;;;;;;5053628;28;20119;-56
2023/06/09 07:27:27;;;;;;;25.75;8.63;;;15.00;99.90;;;;;;5053260;28;20460;-56
2023/06/09 07:29:55;;;;;;;22.58;8.48;;;15.20;99.90;;;;;;5053685;28;20044;-51
2023/06/09 07:32:21;;;;;;;23.48;8.65;;;15.30;99.90;;;;;;5053563;28;20048;-54
2023/06/09 07:34:48;;;;;;;21.15;8.30;;;15.50;99.90;;;;;;5053489;28;20148;-52
2023/06/09 07:37:15;;;;;;;19.90;8.35;;;15.70;99.90;;;;;;5053441;28;20044;-49
2023/06/09 07:39:42;;;;;;;20.73;7.63;;;15.80;99.90;;;;;;5053276;28;20454;-51
2023/06/09 07:42:09;;;;;;;29.45;8.60;;;16.00;99.90;;;;;;5053507;28;20098;-55
2023/06/09 07:44:36;;;;;;;21.88;8.45;;;16.00;99.90;;;;;;5052915;28;20064;-50
2023/06/09 07:47:02;;;;;;;25.42;8.75;;;16.10;99.90;;;;;;5053142;28;20036;-50
2023/06/09 07:49:29;;;;;;;28.60;9.25;;;16.10;99.90;;;;;;5052833;28;20435;-54
2023/06/09 07:51:56;;;;;;;20.98;7.55;;;16.20;99.90;;;;;;5053114;28;20494;-53
2023/06/09 07:54:23;;;;;;;20.05;7.53;;;16.20;99.90;;;;;;5053323;28;20037;-50
2023/06/09 07:56:50;;;;;;;24.67;8.77;;;16.40;99.90;;;;;;5053017;28;20088;-53
2023/06/09 07:59:17;;;;;;;19.88;7.90;;;16.40;99.90;;;;;;5053106;28;20033;-53
2023/06/09 08:01:43;;;;;;;20.15;7.63;;;16.50;99.90;;;;;;5053078;28;20045;-50
2023/06/09 08:04:10;;;;;;;21.02;7.90;;;16.50;99.90;;;;;;5053175;28;20111;-51
2023/06/09 08:06:37;;;;;;;20.38;7.60;;;16.70;99.90;;;;;;5052737;28;20033;-50
2023/06/09 08:09:04;;;;;;;18.75;7.75;;;16.80;99.90;;;;;;5052810;28;20044;-60
2023/06/09 08:11:31;;;;;;;22.15;7.70;;;16.80;99.90;;;;;;5053094;28;20073;-53
2023/06/09 08:13:58;;;;;;;24.80;7.22;;;17.00;99.90;;;;;;5052612;28;20037;-54
2023/06/09 08:16:25;;;;;;;22.77;7.65;;;17.10;99.90;;;;;;5051883;28;20049;-51
2023/06/09 08:18:52;;;;;;;20.60;7.25;;;17.10;99.90;;;;;;5052818;28;20446;-54
2023/06/09 08:21:18;;;;;;;22.40;8.05;;;17.10;99.90;;;;;;5052886;28;20076;-54
2023/06/09 08:23:45;;;;;;;18.92;8.30;;;17.10;99.90;;;;;;5052995;28;20119;-50
2023/06/09 08:26:12;;;;;;;19.25;7.68;;;17.10;99.90;;;;;;5052576;28;20383;-55
2023/06/09 08:28:40;;;;;;;25.02;8.18;;;17.20;99.90;;;;;;5052668;28;20124;-56
2023/06/09 08:31:07;;;;;;;20.85;7.63;;;17.20;99.90;;;;;;5053047;28;20033;-53
2023/06/09 08:33:34;;;;;;;22.90;7.70;;;17.40;99.90;;;;;;5052676;28;20033;-50
2023/06/09 08:36:04;;;;;;;21.65;7.47;;;17.50;99.90;;;;;;5052937;28;20499;-51
2023/06/09 08:38:32;;;;;;;19.45;7.47;;;17.70;99.90;;;;;;5052527;28;20147;-52
2023/06/09 08:40:58;;;;;;;21.67;7.38;;;17.80;99.90;;;;;;5053002;28;20041;-52
2023/06/09 08:43:26;;;;;;;17.20;7.50;;;17.90;99.90;;;;;;5052521;28;20144;-56
2023/06/09 08:45:53;;;;;;;25.33;7.55;;;17.80;99.90;;;;;;5051375;28;20412;-53
2023/06/09 08:48:20;;;;;;;19.83;7.00;;;17.80;99.90;;;;;;5052385;28;20119;-52
2023/06/09 08:50:47;;;;;;;22.10;7.75;;;17.80;99.90;;;;;;5052728;28;20088;-52
2023/06/09 08:53:14;;;;;;;26.30;8.77;;;17.80;99.90;;;;;;5051431;28;20064;-55
2023/06/09 08:55:40;;;;;;;23.45;8.13;;;17.90;99.90;;;;;;5054158;28;20431;-53
2023/06/09 08:58:07;;;;;;;21.48;7.47;;;18.00;99.90;;;;;;5056359;28;20044;-55
2023/06/09 09:00:34;;;;;;;19.40;7.70;;;18.10;99.90;;;;;;5056351;28;20049;-52
2023/06/09 09:03:01;;;;;;;23.10;7.47;;;18.20;99.90;;;;;;5056226;28;20067;-52
2023/06/09 09:05:28;;;;;;;20.33;7.95;;;18.30;99.90;;;;;;5056119;28;20048;-54
2023/06/09 09:07:55;;;;;;;18.85;7.45;;;18.20;99.90;;;;;;5056082;28;20051;-52
2023/06/09 09:10:22;;;;;;;21.15;8.10;;;18.30;99.90;;;;;;5056085;28;20095;-53
2023/06/09 09:12:48;;;;;;;24.70;8.38;;;18.40;99.90;;;;;;5056081;28;20132;-53
2023/06/09 09:15:15;;;;;;;27.63;8.85;;;18.30;99.90;;;;;;5056164;28;20047;-55
2023/06/09 09:17:42;;;;;;;20.38;7.32;;;18.40;99.90;;;;;;5054982;28;20487;-55
2023/06/09 09:20:14;;;;;;;21.95;8.00;;;18.50;99.90;;;;;;5056154;28;20059;-51
2023/06/09 09:22:41;;;;;;;20.75;8.30;;;18.60;99.90;;;;;;5055011;28;20045;-51
2023/06/09 09:25:08;;;;;;;20.85;7.57;;;18.60;99.90;;;;;;5054718;28;20083;-53
2023/06/09 09:27:35;;;;;;;22.75;8.30;;;18.60;99.90;;;;;;5055649;28;20459;-51
2023/06/09 09:30:02;;;;;;;20.10;8.10;;;18.60;99.90;;;;;;5055727;28;20041;-53
2023/06/09 09:32:31;;;;;;;24.08;7.68;;;18.70;99.90;;;;;;5054589;28;20052;-53
2023/06/09 09:34:58;;;;;;;26.30;8.88;;;18.80;99.90;;;;;;5054808;28;20403;-52
2023/06/09 09:37:25;;;;;;;20.20;8.10;;;18.80;99.90;;;;;;5055470;28;20033;-54
2023/06/09 09:39:52;;;;;;;22.67;7.32;;;18.80;99.90;;;;;;5055748;28;20132;-51
2023/06/09 09:42:19;;;;;;;24.63;8.05;;;18.70;99.90;;;;;;5055700;28;20099;-52
2023/06/09 09:44:52;;;;;;;22.08;8.25;;;18.80;99.90;;;;;;5056011;28;20067;-53
2023/06/09 09:47:23;;;;;;;23.15;8.13;;;18.90;99.90;;;;;;5055507;28;20072;-56
2023/06/09 09:49:50;;;;;;;23.13;7.75;;;18.90;99.90;;;;;;5055579;28;20111;-54
2023/06/09 09:52:17;;;;;;;19.60;7.82;;;18.90;99.90;;;;;;5055360;28;20037;-53
2023/06/09 09:54:44;;;;;;;19.45;7.97;;;19.00;99.90;;;;;;5055338;28;20044;-55
2023/06/09 09:57:11;;;;;;;19.80;8.00;;;19.00;99.90;;;;;;5054939;28;20072;-55
2023/06/09 09:59:37;;;;;;;20.75;7.80;;;19.10;99.90;;;;;;5055011;28;20510;-55
2023/06/09 10:02:04;;;;;;;21.30;7.60;;;19.20;99.90;;;;;;5055209;28;20139;-55
2023/06/09 10:04:31;;;;;;;26.83;8.73;;;19.30;99.90;;;;;;5055164;28;20045;-49
2023/06/09 10:07:01;;;;;;;23.23;8.38;;;19.30;99.80;;;;;;5054351;28;20064;-55
2023/06/09 10:09:27;;;;;;;19.40;7.35;;;19.30;99.90;;;;;;5054902;28;20033;-51
2023/06/09 10:11:54;;;;;;;19.92;8.30;;;19.30;99.80;;;;;;5055128;28;20068;-55
2023/06/09 10:14:21;;;;;;;25.58;8.25;;;19.40;99.90;;;;;;5055176;28;20033;-50
2023/06/09 10:16:50;;;;;;;20.02;8.13;;;19.40;99.90;;;;;;5054969;28;20139;-52
2023/06/09 10:19:16;;;;;;;23.25;8.63;;;19.50;99.90;;;;;;5054956;28;20051;-50
2023/06/09 10:21:43;;;;;;;20.27;8.00;;;19.50;99.50;;;;;;5054874;28;20045;-54
2023/06/09 10:24:10;;;;;;;19.23;8.43;;;19.60;99.60;;;;;;5054982;28;20041;-51
2023/06/09 10:26:37;;;;;;;22.40;8.05;;;19.60;99.60;;;;;;5054882;28;20065;-51
2023/06/09 10:29:04;;;;;;;20.17;8.18;;;19.80;99.70;;;;;;5054940;28;20033;-50
2023/06/09 10:31:34;;;;;;;16.83;8.02;;;19.80;99.50;;;;;;5054729;28;20043;-56
2023/06/09 10:34:01;;;;;;;23.48;8.07;;;19.90;99.40;;;;;;5054788;28;20495;-55
2023/06/09 10:36:28;;;;;;;21.13;7.65;;;20.00;99.30;;;;;;5054163;28;20043;-54
2023/06/09 10:38:55;;;;;;;21.67;8.52;;;20.00;99.10;;;;;;5054361;28;20049;-55
2023/06/09 10:41:23;;;;;;;21.50;8.77;;;20.00;99.00;;;;;;5054554;28;20044;-55
2023/06/09 10:43:49;;;;;;;19.83;7.60;;;20.10;99.10;;;;;;5054483;28;20044;-54
2023/06/09 10:46:16;;;;;;;17.55;8.27;;;20.10;99.10;;;;;;5054180;28;20041;-53
2023/06/09 10:48:43;;;;;;;25.65;8.45;;;20.10;99.00;;;;;;5054431;28;20124;-56
2023/06/09 10:51:10;;;;;;;25.85;7.65;;;20.20;98.90;;;;;;5054201;28;20048;-50
2023/06/09 10:53:38;;;;;;;22.85;8.70;;;20.30;98.90;;;;;;5054103;28;20450;-50
2023/06/09 10:56:05;;;;;;;20.08;8.65;;;20.30;98.80;;;;;;5053883;28;20484;-53
2023/06/09 10:58:32;;;;;;;20.17;7.70;;;20.30;98.60;;;;;;5052754;28;20079;-56
2023/06/09 11:00:59;;;;;;;22.23;7.35;;;20.40;98.90;;;;;;5053610;28;20052;-54
2023/06/09 11:03:26;;;;;;;19.98;7.43;;;20.40;99.00;;;;;;5054185;28;20068;-54
2023/06/09 11:05:53;;;;;;;51.75;27.55;;;20.50;98.80;;;;;;5053862;28;20132;-49
2023/06/09 11:08:20;;;;;;;24.05;10.68;;;20.70;98.50;;;;;;5053899;28;20033;-52
2023/06/09 11:10:46;;;;;;;21.40;7.85;;;20.80;98.40;;;;;;5053815;28;20044;-56
2023/06/09 11:13:19;;;;;;;20.92;8.30;;;20.80;98.50;;;;;;5053986;28;20052;-56
2023/06/09 11:15:46;;;;;;;20.08;9.02;;;20.80;98.50;;;;;;5053783;28;20055;-52
2023/06/09 11:18:13;;;;;;;23.38;8.50;;;20.70;98.40;;;;;;5052988;28;20131;-55
2023/06/09 11:20:40;;;;;;;20.45;7.63;;;20.70;98.60;;;;;;5053877;28;20045;-53
2023/06/09 11:23:07;;;;;;;22.00;8.13;;;20.90;98.70;;;;;;5053937;28;20049;-51
2023/06/09 11:25:34;;;;;;;19.05;7.80;;;21.00;98.40;;;;;;5053666;28;20041;-51
2023/06/09 11:28:00;;;;;;;22.48;7.95;;;21.10;98.30;;;;;;5053457;28;20041;-52
2023/06/09 11:30:27;;;;;;;21.77;7.90;;;21.10;98.30;;;;;;5052497;28;20037;-53
2023/06/09 11:32:54;;;;;;;20.02;7.68;;;21.20;98.30;;;;;;5053563;28;20037;-54
2023/06/09 11:35:21;;;;;;;23.55;8.30;;;21.30;98.30;;;;;;5053474;28;20037;-52
2023/06/09 11:37:48;;;;;;;22.15;8.50;;;21.30;97.90;;;;;;5053282;28;20045;-52
2023/06/09 11:40:15;;;;;;;24.40;8.65;;;21.30;98.30;;;;;;5053612;28;20037;-53
2023/06/09 11:42:42;;;;;;;19.40;8.85;;;21.30;98.00;;;;;;5053091;28;20131;-50
2023/06/09 11:45:09;;;;;;;23.65;8.02;;;21.40;98.00;;;;;;5053594;28;20341;-57
2023/06/09 11:47:36;;;;;;;22.52;8.20;;;21.40;98.20;;;;;;5053230;28;20116;-50
2023/06/09 11:50:05;;;;;;;24.98;8.85;;;21.50;98.10;;;;;;5053164;28;20037;-55
2023/06/09 11:52:33;;;;;;;22.63;8.68;;;21.60;97.80;;;;;;5053316;28;20108;-54
2023/06/09 11:55:00;;;;;;;23.95;8.10;;;21.60;97.80;;;;;;5052263;28;20083;-55
2023/06/09 11:57:27;;;;;;;17.75;7.30;;;21.70;98.10;;;;;;5052849;28;20476;-51
2023/06/09 11:59:54;;;;;;;20.15;7.80;;;21.70;97.90;;;;;;5053575;28;20040;-53
2023/06/09 12:02:20;;;;;;;24.08;7.55;;;21.80;97.80;;;;;;5051615;28;20099;-53
2023/06/09 12:04:49;;;;;;;22.70;8.45;;;21.90;97.80;;;;;;5053070;28;20116;-49
2023/06/09 12:07:15;;;;;;;20.90;7.38;;;21.90;97.70;;;;;;5053027;28;20041;-52
2023/06/09 12:09:42;;;;;;;20.25;7.15;;;21.90;97.80;;;;;;5052904;28;20052;-54
2023/06/09 12:12:09;;;;;;;17.88;7.78;;;22.00;97.60;;;;;;5052926;28;20040;-47
2023/06/09 12:14:37;;;;;;;23.33;7.85;;;22.00;97.30;;;;;;5053132;28;20037;-49
2023/06/09 12:17:04;;;;;;;15.13;7.70;;;22.00;97.40;;;;;;5052950;28;20053;-52
2023/06/09 12:19:30;;;;;;;21.77;8.02;;;22.00;97.10;;;;;;5052798;28;20381;-53
2023/06/09 12:21:57;;;;;;;23.88;8.02;;;21.90;97.20;;;;;;5053020;28;20087;-56
2023/06/09 12:24:24;;;;;;;21.42;8.85;;;21.90;97.40;;;;;;5053049;28;20049;-52
2023/06/09 12:26:51;;;;;;;19.08;8.07;;;21.90;97.30;;;;;;5052859;28;20456;-51
2023/06/09 12:29:18;;;;;;;20.35;7.38;;;21.90;97.10;;;;;;5054166;28;20041;-51
2023/06/09 12:31:44;;;;;;;23.48;8.00;;;21.90;97.50;;;;;;5057022;28;20488;-52
2023/06/09 12:34:11;;;;;;;18.25;7.40;;;22.10;97.10;;;;;;5057109;28;20041;-53
2023/06/09 12:36:38;;;;;;;19.55;7.47;;;22.20;97.40;;;;;;5056855;28;20411;-50